sensor_id;sensor_type;location;lat;lon;timestamp;P1;durP1;ratioP1;P2;durP2;ratioP2
38302;SDS011;24103;42.454;27.400;2023-06-26T00:00:18;5.32;;;4.20;;
38302;SDS011;24103;42.454;27.400;2023-06-26T00:02:43;8.23;;;5.13;;
38302;SDS011;24103;42.454;27.400;2023-06-26T00:05:09;9.30;;;5.05;;
38302;SDS011;24103;42.454;27.400;2023-06-26T00:07:35;11.55;;;5.18;;
38302;SDS011;24103;42.454;27.400;2023-06-26T00:10:01;11.27;;;4.70;;
38302;SDS011;24103;42.454;27.400;2023-06-26T00:12:28;4.57;;;4.03;;
38302;SDS011;24103;42.454;27.400;2023-06-26T00:14:54;9.85;;;4.78;;
38302;SDS011;24103;42.454;27.400;2023-06-26T00:17:19;7.32;;;4.40;;
38302;SDS011;24103;42.454;27.400;2023-06-26T00:19:45;5.40;;;4.22;;
38302;SDS011;24103;42.454;27.400;2023-06-26T00:22:11;8.00;;;3.75;;
38302;SDS011;24103;42.454;27.400;2023-06-26T00:24:36;9.68;;;4.15;;
38302;SDS011;24103;42.454;27.400;2023-06-26T00:27:02;4.60;;;3.83;;
38302;SDS011;24103;42.454;27.400;2023-06-26T00:29:27;7.15;;;4.45;;
38302;SDS011;24103;42.454;27.400;2023-06-26T00:31:53;5.32;;;3.80;;
38302;SDS011;24103;42.454;27.400;2023-06-26T00:34:18;6.45;;;3.75;;
38302;SDS011;24103;42.454;27.400;2023-06-26T00:36:44;14.68;;;4.63;;
38302;SDS011;24103;42.454;27.400;2023-06-26T00:39:10;4.60;;;3.90;;
38302;SDS011;24103;42.454;27.400;2023-06-26T00:41:36;7.95;;;3.75;;
38302;SDS011;24103;42.454;27.400;2023-06-26T00:44:03;7.43;;;4.00;;
38302;SDS011;24103;42.454;27.400;2023-06-26T00:46:32;12.27;;;4.68;;
38302;SDS011;24103;42.454;27.400;2023-06-26T00:48:58;7.03;;;4.22;;
38302;SDS011;24103;42.454;27.400;2023-06-26T00:51:28;9.25;;;4.18;;
38302;SDS011;24103;42.454;27.400;2023-06-26T00:53:55;5.78;;;4.07;;
38302;SDS011;24103;42.454;27.400;2023-06-26T00:56:22;6.95;;;4.00;;
38302;SDS011;24103;42.454;27.400;2023-06-26T00:58:48;7.68;;;4.38;;
38302;SDS011;24103;42.454;27.400;2023-06-26T01:01:13;4.78;;;3.63;;
38302;SDS011;24103;42.454;27.400;2023-06-26T01:03:42;6.32;;;3.78;;
38302;SDS011;24103;42.454;27.400;2023-06-26T01:06:09;5.30;;;3.85;;
38302;SDS011;24103;42.454;27.400;2023-06-26T01:08:41;10.38;;;4.75;;
38302;SDS011;24103;42.454;27.400;2023-06-26T01:11:08;10.45;;;4.35;;
38302;SDS011;24103;42.454;27.400;2023-06-26T01:13:34;8.27;;;4.43;;
38302;SDS011;24103;42.454;27.400;2023-06-26T01:16:02;8.60;;;4.60;;
38302;SDS011;24103;42.454;27.400;2023-06-26T01:18:30;8.95;;;4.13;;
38302;SDS011;24103;42.454;27.400;2023-06-26T01:20:57;9.45;;;5.10;;
38302;SDS011;24103;42.454;27.400;2023-06-26T01:23:44;7.15;;;4.15;;
38302;SDS011;24103;42.454;27.400;2023-06-26T01:26:21;9.32;;;4.50;;
38302;SDS011;24103;42.454;27.400;2023-06-26T01:28:49;10.77;;;4.35;;
38302;SDS011;24103;42.454;27.400;2023-06-26T01:31:17;9.07;;;4.25;;
38302;SDS011;24103;42.454;27.400;2023-06-26T01:33:44;8.43;;;4.00;;
38302;SDS011;24103;42.454;27.400;2023-06-26T01:36:10;8.63;;;4.40;;
38302;SDS011;24103;42.454;27.400;2023-06-26T01:38:35;10.35;;;4.70;;
38302;SDS011;24103;42.454;27.400;2023-06-26T01:41:01;11.77;;;4.55;;
38302;SDS011;24103;42.454;27.400;2023-06-26T01:43:47;9.43;;;4.05;;
38302;SDS011;24103;42.454;27.400;2023-06-26T01:52:12;10.85;;;4.32;;
38302;SDS011;24103;42.454;27.400;2023-06-26T01:57:40;16.88;;;5.25;;
38302;SDS011;24103;42.454;27.400;2023-06-26T02:00:07;9.15;;;4.75;;
38302;SDS011;24103;42.454;27.400;2023-06-26T02:02:37;7.88;;;4.30;;
38302;SDS011;24103;42.454;27.400;2023-06-26T02:05:03;5.13;;;4.43;;
38302;SDS011;24103;42.454;27.400;2023-06-26T02:07:29;7.50;;;4.13;;
38302;SDS011;24103;42.454;27.400;2023-06-26T02:09:54;5.47;;;3.70;;
38302;SDS011;24103;42.454;27.400;2023-06-26T02:12:20;8.73;;;4.40;;
38302;SDS011;24103;42.454;27.400;2023-06-26T02:14:46;9.65;;;4.40;;
38302;SDS011;24103;42.454;27.400;2023-06-26T02:17:11;4.72;;;4.22;;
38302;SDS011;24103;42.454;27.400;2023-06-26T02:19:36;9.98;;;4.10;;
38302;SDS011;24103;42.454;27.400;2023-06-26T02:22:13;7.63;;;5.25;;
38302;SDS011;24103;42.454;27.400;2023-06-26T02:24:39;11.98;;;5.22;;
38302;SDS011;24103;42.454;27.400;2023-06-26T02:27:05;9.57;;;5.00;;
38302;SDS011;24103;42.454;27.400;2023-06-26T02:29:30;7.00;;;5.35;;
38302;SDS011;24103;42.454;27.400;2023-06-26T02:31:56;7.18;;;5.65;;
38302;SDS011;24103;42.454;27.400;2023-06-26T02:34:21;6.18;;;5.65;;
38302;SDS011;24103;42.454;27.400;2023-06-26T02:36:47;11.63;;;5.90;;
38302;SDS011;24103;42.454;27.400;2023-06-26T02:39:12;8.10;;;4.82;;
38302;SDS011;24103;42.454;27.400;2023-06-26T02:41:39;4.68;;;4.28;;
38302;SDS011;24103;42.454;27.400;2023-06-26T02:44:05;6.85;;;4.63;;
38302;SDS011;24103;42.454;27.400;2023-06-26T02:46:31;4.80;;;4.30;;
38302;SDS011;24103;42.454;27.400;2023-06-26T02:48:56;7.70;;;4.28;;
38302;SDS011;24103;42.454;27.400;2023-06-26T02:51:22;7.93;;;4.60;;
38302;SDS011;24103;42.454;27.400;2023-06-26T02:53:48;6.13;;;3.90;;
38302;SDS011;24103;42.454;27.400;2023-06-26T02:56:13;7.47;;;5.00;;
38302;SDS011;24103;42.454;27.400;2023-06-26T02:58:38;5.43;;;4.28;;
38302;SDS011;24103;42.454;27.400;2023-06-26T03:01:04;5.47;;;4.15;;
38302;SDS011;24103;42.454;27.400;2023-06-26T03:03:29;6.10;;;4.07;;
38302;SDS011;24103;42.454;27.400;2023-06-26T03:05:55;5.50;;;3.95;;
38302;SDS011;24103;42.454;27.400;2023-06-26T03:08:20;10.00;;;4.88;;
38302;SDS011;24103;42.454;27.400;2023-06-26T03:10:46;5.85;;;4.25;;
38302;SDS011;24103;42.454;27.400;2023-06-26T03:13:11;6.47;;;4.68;;
38302;SDS011;24103;42.454;27.400;2023-06-26T03:15:37;7.90;;;4.47;;
38302;SDS011;24103;42.454;27.400;2023-06-26T03:18:03;5.63;;;4.43;;
38302;SDS011;24103;42.454;27.400;2023-06-26T03:20:28;9.93;;;4.85;;
38302;SDS011;24103;42.454;27.400;2023-06-26T03:22:54;5.70;;;5.10;;
38302;SDS011;24103;42.454;27.400;2023-06-26T03:25:19;5.22;;;4.63;;
38302;SDS011;24103;42.454;27.400;2023-06-26T03:27:45;10.55;;;5.95;;
38302;SDS011;24103;42.454;27.400;2023-06-26T03:30:11;8.15;;;5.22;;
38302;SDS011;24103;42.454;27.400;2023-06-26T03:32:36;6.55;;;5.03;;
38302;SDS011;24103;42.454;27.400;2023-06-26T03:35:03;7.10;;;5.32;;
38302;SDS011;24103;42.454;27.400;2023-06-26T03:37:29;8.05;;;5.65;;
38302;SDS011;24103;42.454;27.400;2023-06-26T03:39:54;7.18;;;5.20;;
38302;SDS011;24103;42.454;27.400;2023-06-26T03:42:20;9.45;;;6.30;;
38302;SDS011;24103;42.454;27.400;2023-06-26T03:44:45;6.32;;;5.18;;
38302;SDS011;24103;42.454;27.400;2023-06-26T03:47:11;8.52;;;5.63;;
38302;SDS011;24103;42.454;27.400;2023-06-26T03:49:36;13.50;;;6.18;;
38302;SDS011;24103;42.454;27.400;2023-06-26T03:52:01;8.00;;;4.88;;
38302;SDS011;24103;42.454;27.400;2023-06-26T03:54:27;11.57;;;5.40;;
38302;SDS011;24103;42.454;27.400;2023-06-26T03:56:53;7.63;;;3.97;;
38302;SDS011;24103;42.454;27.400;2023-06-26T03:59:18;10.93;;;4.65;;
38302;SDS011;24103;42.454;27.400;2023-06-26T04:01:43;7.63;;;4.22;;
38302;SDS011;24103;42.454;27.400;2023-06-26T04:04:09;10.98;;;3.95;;
38302;SDS011;24103;42.454;27.400;2023-06-26T04:06:35;3.88;;;3.45;;
38302;SDS011;24103;42.454;27.400;2023-06-26T04:09:00;4.05;;;3.40;;
38302;SDS011;24103;42.454;27.400;2023-06-26T04:11:26;5.93;;;3.45;;
38302;SDS011;24103;42.454;27.400;2023-06-26T04:13:52;5.13;;;3.90;;
38302;SDS011;24103;42.454;27.400;2023-06-26T04:16:18;6.93;;;3.97;;
38302;SDS011;24103;42.454;27.400;2023-06-26T04:18:44;5.00;;;4.00;;
38302;SDS011;24103;42.454;27.400;2023-06-26T04:21:10;4.90;;;3.83;;
38302;SDS011;24103;42.454;27.400;2023-06-26T04:23:37;7.07;;;4.03;;
38302;SDS011;24103;42.454;27.400;2023-06-26T04:26:06;4.20;;;3.80;;
38302;SDS011;24103;42.454;27.400;2023-06-26T04:28:33;4.38;;;3.90;;
38302;SDS011;24103;42.454;27.400;2023-06-26T04:31:05;7.03;;;4.70;;
38302;SDS011;24103;42.454;27.400;2023-06-26T04:33:30;7.53;;;5.05;;
38302;SDS011;24103;42.454;27.400;2023-06-26T04:35:56;7.25;;;4.95;;
38302;SDS011;24103;42.454;27.400;2023-06-26T04:38:22;6.95;;;4.07;;
38302;SDS011;24103;42.454;27.400;2023-06-26T04:40:48;4.40;;;3.70;;
38302;SDS011;24103;42.454;27.400;2023-06-26T04:43:15;5.05;;;4.65;;
38302;SDS011;24103;42.454;27.400;2023-06-26T04:45:41;6.40;;;5.55;;
38302;SDS011;24103;42.454;27.400;2023-06-26T04:48:07;5.72;;;4.63;;
38302;SDS011;24103;42.454;27.400;2023-06-26T04:50:33;6.63;;;4.53;;
38302;SDS011;24103;42.454;27.400;2023-06-26T04:53:00;6.57;;;4.40;;
38302;SDS011;24103;42.454;27.400;2023-06-26T04:55:27;5.75;;;4.55;;
38302;SDS011;24103;42.454;27.400;2023-06-26T04:57:55;7.25;;;6.10;;
38302;SDS011;24103;42.454;27.400;2023-06-26T05:00:23;6.82;;;5.15;;
38302;SDS011;24103;42.454;27.400;2023-06-26T05:02:53;11.32;;;5.78;;
38302;SDS011;24103;42.454;27.400;2023-06-26T05:05:26;6.00;;;5.07;;
38302;SDS011;24103;42.454;27.400;2023-06-26T05:07:55;5.75;;;4.43;;
38302;SDS011;24103;42.454;27.400;2023-06-26T05:10:21;8.63;;;4.97;;
38302;SDS011;24103;42.454;27.400;2023-06-26T05:16:09;5.20;;;4.40;;
38302;SDS011;24103;42.454;27.400;2023-06-26T05:18:35;5.70;;;4.05;;
38302;SDS011;24103;42.454;27.400;2023-06-26T05:21:02;6.07;;;4.60;;
38302;SDS011;24103;42.454;27.400;2023-06-26T05:23:32;5.15;;;4.57;;
38302;SDS011;24103;42.454;27.400;2023-06-26T05:25:59;5.07;;;4.15;;
38302;SDS011;24103;42.454;27.400;2023-06-26T05:28:27;4.57;;;4.03;;
38302;SDS011;24103;42.454;27.400;2023-06-26T05:31:14;5.15;;;4.65;;
38302;SDS011;24103;42.454;27.400;2023-06-26T05:33:43;5.35;;;4.53;;
38302;SDS011;24103;42.454;27.400;2023-06-26T05:43:12;8.32;;;4.57;;
38302;SDS011;24103;42.454;27.400;2023-06-26T05:45:39;5.95;;;4.47;;
38302;SDS011;24103;42.454;27.400;2023-06-26T05:48:05;7.15;;;4.85;;
38302;SDS011;24103;42.454;27.400;2023-06-26T05:50:31;8.57;;;5.22;;
38302;SDS011;24103;42.454;27.400;2023-06-26T05:52:57;5.20;;;4.78;;
38302;SDS011;24103;42.454;27.400;2023-06-26T05:55:23;9.23;;;5.00;;
38302;SDS011;24103;42.454;27.400;2023-06-26T05:57:49;5.25;;;4.82;;
38302;SDS011;24103;42.454;27.400;2023-06-26T06:00:16;8.60;;;4.88;;
38302;SDS011;24103;42.454;27.400;2023-06-26T06:02:45;7.43;;;4.80;;
38302;SDS011;24103;42.454;27.400;2023-06-26T06:05:10;7.63;;;4.60;;
38302;SDS011;24103;42.454;27.400;2023-06-26T06:07:37;5.00;;;4.45;;
38302;SDS011;24103;42.454;27.400;2023-06-26T06:10:03;5.60;;;4.57;;
38302;SDS011;24103;42.454;27.400;2023-06-26T06:12:29;8.20;;;5.55;;
38302;SDS011;24103;42.454;27.400;2023-06-26T06:14:56;11.95;;;6.80;;
38302;SDS011;24103;42.454;27.400;2023-06-26T06:17:22;7.22;;;5.32;;
38302;SDS011;24103;42.454;27.400;2023-06-26T06:26:21;7.72;;;4.25;;
38302;SDS011;24103;42.454;27.400;2023-06-26T06:29:38;7.95;;;4.88;;
38302;SDS011;24103;42.454;27.400;2023-06-26T06:32:04;6.63;;;5.32;;
38302;SDS011;24103;42.454;27.400;2023-06-26T06:34:30;14.02;;;4.85;;
38302;SDS011;24103;42.454;27.400;2023-06-26T06:36:57;6.15;;;4.75;;
38302;SDS011;24103;42.454;27.400;2023-06-26T06:42:16;4.95;;;4.45;;
38302;SDS011;24103;42.454;27.400;2023-06-26T06:44:41;5.45;;;4.95;;
38302;SDS011;24103;42.454;27.400;2023-06-26T06:47:08;5.60;;;4.60;;
38302;SDS011;24103;42.454;27.400;2023-06-26T06:49:33;5.20;;;4.35;;
38302;SDS011;24103;42.454;27.400;2023-06-26T06:51:59;6.20;;;4.80;;
38302;SDS011;24103;42.454;27.400;2023-06-26T06:54:25;5.05;;;4.15;;
38302;SDS011;24103;42.454;27.400;2023-06-26T06:56:53;5.13;;;4.30;;
38302;SDS011;24103;42.454;27.400;2023-06-26T06:59:19;10.20;;;6.43;;
38302;SDS011;24103;42.454;27.400;2023-06-26T07:01:44;8.27;;;6.60;;
38302;SDS011;24103;42.454;27.400;2023-06-26T07:04:10;5.63;;;5.00;;
38302;SDS011;24103;42.454;27.400;2023-06-26T07:06:36;5.97;;;5.47;;
38302;SDS011;24103;42.454;27.400;2023-06-26T07:09:04;7.70;;;5.85;;
38302;SDS011;24103;42.454;27.400;2023-06-26T07:11:30;6.18;;;5.57;;
38302;SDS011;24103;42.454;27.400;2023-06-26T07:13:57;8.68;;;7.00;;
38302;SDS011;24103;42.454;27.400;2023-06-26T07:16:23;7.03;;;6.32;;
38302;SDS011;24103;42.454;27.400;2023-06-26T07:18:48;6.95;;;6.05;;
38302;SDS011;24103;42.454;27.400;2023-06-26T07:21:15;9.20;;;7.35;;
38302;SDS011;24103;42.454;27.400;2023-06-26T07:23:40;9.52;;;7.18;;
38302;SDS011;24103;42.454;27.400;2023-06-26T07:26:06;7.50;;;6.68;;
38302;SDS011;24103;42.454;27.400;2023-06-26T07:28:31;9.43;;;7.13;;
38302;SDS011;24103;42.454;27.400;2023-06-26T07:30:57;11.38;;;6.28;;
38302;SDS011;24103;42.454;27.400;2023-06-26T07:33:22;7.25;;;5.70;;
38302;SDS011;24103;42.454;27.400;2023-06-26T07:35:48;6.45;;;5.70;;
38302;SDS011;24103;42.454;27.400;2023-06-26T07:40:42;5.32;;;4.82;;
38302;SDS011;24103;42.454;27.400;2023-06-26T07:43:08;6.22;;;5.53;;
38302;SDS011;24103;42.454;27.400;2023-06-26T07:45:34;6.95;;;6.28;;
38302;SDS011;24103;42.454;27.400;2023-06-26T07:48:01;10.18;;;7.60;;
38302;SDS011;24103;42.454;27.400;2023-06-26T07:50:27;8.32;;;7.55;;
38302;SDS011;24103;42.454;27.400;2023-06-26T07:52:54;10.38;;;7.40;;
38302;SDS011;24103;42.454;27.400;2023-06-26T07:55:22;7.60;;;6.90;;
38302;SDS011;24103;42.454;27.400;2023-06-26T07:57:52;12.02;;;6.80;;
38302;SDS011;24103;42.454;27.400;2023-06-26T08:00:20;13.20;;;8.15;;
38302;SDS011;24103;42.454;27.400;2023-06-26T08:02:46;13.38;;;7.10;;
38302;SDS011;24103;42.454;27.400;2023-06-26T08:05:12;32.35;;;12.38;;
38302;SDS011;24103;42.454;27.400;2023-06-26T08:07:41;9.63;;;8.65;;
38302;SDS011;24103;42.454;27.400;2023-06-26T08:10:07;14.98;;;13.40;;
38302;SDS011;24103;42.454;27.400;2023-06-26T08:12:33;13.88;;;11.68;;
38302;SDS011;24103;42.454;27.400;2023-06-26T08:15:00;16.85;;;15.05;;
38302;SDS011;24103;42.454;27.400;2023-06-26T08:17:27;13.10;;;11.45;;
38302;SDS011;24103;42.454;27.400;2023-06-26T08:19:53;20.27;;;17.05;;
38302;SDS011;24103;42.454;27.400;2023-06-26T08:22:19;13.57;;;12.32;;
38302;SDS011;24103;42.454;27.400;2023-06-26T08:24:44;13.88;;;12.57;;
38302;SDS011;24103;42.454;27.400;2023-06-26T08:27:11;11.65;;;10.55;;
38302;SDS011;24103;42.454;27.400;2023-06-26T08:29:37;11.23;;;9.98;;
38302;SDS011;24103;42.454;27.400;2023-06-26T08:32:05;12.68;;;11.48;;
38302;SDS011;24103;42.454;27.400;2023-06-26T08:34:31;18.85;;;14.50;;
38302;SDS011;24103;42.454;27.400;2023-06-26T08:36:58;15.63;;;12.98;;
38302;SDS011;24103;42.454;27.400;2023-06-26T08:39:24;11.30;;;10.23;;
38302;SDS011;24103;42.454;27.400;2023-06-26T08:41:52;13.57;;;12.18;;
38302;SDS011;24103;42.454;27.400;2023-06-26T08:44:18;14.73;;;11.63;;
38302;SDS011;24103;42.454;27.400;2023-06-26T08:46:43;11.52;;;10.38;;
38302;SDS011;24103;42.454;27.400;2023-06-26T08:49:17;11.25;;;10.25;;
38302;SDS011;24103;42.454;27.400;2023-06-26T08:51:49;11.05;;;10.10;;
38302;SDS011;24103;42.454;27.400;2023-06-26T08:54:27;11.98;;;10.85;;
38302;SDS011;24103;42.454;27.400;2023-06-26T08:56:59;12.60;;;11.38;;
38302;SDS011;24103;42.454;27.400;2023-06-26T08:59:38;10.98;;;9.93;;
38302;SDS011;24103;42.454;27.400;2023-06-26T09:02:05;11.02;;;9.93;;
38302;SDS011;24103;42.454;27.400;2023-06-26T09:04:34;10.70;;;9.70;;
38302;SDS011;24103;42.454;27.400;2023-06-26T09:07:02;10.57;;;9.48;;
38302;SDS011;24103;42.454;27.400;2023-06-26T09:09:29;9.80;;;8.95;;
38302;SDS011;24103;42.454;27.400;2023-06-26T09:11:55;8.85;;;8.15;;
38302;SDS011;24103;42.454;27.400;2023-06-26T09:14:21;9.25;;;8.43;;
38302;SDS011;24103;42.454;27.400;2023-06-26T09:16:48;18.70;;;9.57;;
38302;SDS011;24103;42.454;27.400;2023-06-26T09:19:15;9.82;;;7.75;;
38302;SDS011;24103;42.454;27.400;2023-06-26T09:25:04;9.23;;;7.20;;
38302;SDS011;24103;42.454;27.400;2023-06-26T09:27:31;9.05;;;7.25;;
38302;SDS011;24103;42.454;27.400;2023-06-26T09:29:58;11.07;;;7.90;;
38302;SDS011;24103;42.454;27.400;2023-06-26T09:32:24;10.35;;;7.82;;
38302;SDS011;24103;42.454;27.400;2023-06-26T09:34:52;8.00;;;7.30;;
38302;SDS011;24103;42.454;27.400;2023-06-26T09:37:20;8.68;;;6.20;;
38302;SDS011;24103;42.454;27.400;2023-06-26T09:39:46;8.10;;;6.60;;
38302;SDS011;24103;42.454;27.400;2023-06-26T09:42:19;7.57;;;6.63;;
38302;SDS011;24103;42.454;27.400;2023-06-26T09:44:45;12.60;;;8.43;;
38302;SDS011;24103;42.454;27.400;2023-06-26T09:47:16;15.85;;;8.75;;
38302;SDS011;24103;42.454;27.400;2023-06-26T09:49:43;10.13;;;7.22;;
38302;SDS011;24103;42.454;27.400;2023-06-26T09:52:09;9.82;;;7.65;;
38302;SDS011;24103;42.454;27.400;2023-06-26T09:54:38;9.90;;;7.40;;
38302;SDS011;24103;42.454;27.400;2023-06-26T09:57:11;8.80;;;7.25;;
38302;SDS011;24103;42.454;27.400;2023-06-26T09:59:38;9.63;;;7.00;;
38302;SDS011;24103;42.454;27.400;2023-06-26T10:02:05;7.40;;;4.93;;
38302;SDS011;24103;42.454;27.400;2023-06-26T10:04:31;6.50;;;4.88;;
38302;SDS011;24103;42.454;27.400;2023-06-26T10:07:00;6.80;;;5.63;;
38302;SDS011;24103;42.454;27.400;2023-06-26T10:09:30;4.82;;;4.35;;
38302;SDS011;24103;42.454;27.400;2023-06-26T10:12:18;6.00;;;4.25;;
38302;SDS011;24103;42.454;27.400;2023-06-26T10:14:50;4.63;;;3.85;;
38302;SDS011;24103;42.454;27.400;2023-06-26T10:17:30;8.00;;;4.50;;
38302;SDS011;24103;42.454;27.400;2023-06-26T10:20:01;6.38;;;4.53;;
38302;SDS011;24103;42.454;27.400;2023-06-26T10:22:29;4.78;;;4.20;;
38302;SDS011;24103;42.454;27.400;2023-06-26T10:24:58;6.88;;;5.30;;
38302;SDS011;24103;42.454;27.400;2023-06-26T10:27:28;6.13;;;4.65;;
38302;SDS011;24103;42.454;27.400;2023-06-26T10:30:02;5.68;;;5.18;;
38302;SDS011;24103;42.454;27.400;2023-06-26T10:32:34;7.22;;;6.13;;
38302;SDS011;24103;42.454;27.400;2023-06-26T10:35:00;6.50;;;5.85;;
38302;SDS011;24103;42.454;27.400;2023-06-26T10:37:41;7.72;;;6.57;;
38302;SDS011;24103;42.454;27.400;2023-06-26T10:40:10;8.63;;;6.43;;
38302;SDS011;24103;42.454;27.400;2023-06-26T10:42:38;9.30;;;6.75;;
38302;SDS011;24103;42.454;27.400;2023-06-26T10:45:23;7.70;;;6.97;;
38302;SDS011;24103;42.454;27.400;2023-06-26T10:47:53;8.50;;;6.57;;
38302;SDS011;24103;42.454;27.400;2023-06-26T10:50:26;9.57;;;7.10;;
38302;SDS011;24103;42.454;27.400;2023-06-26T10:53:14;9.05;;;6.90;;
38302;SDS011;24103;42.454;27.400;2023-06-26T11:08:05;32.80;;;13.98;;
38302;SDS011;24103;42.454;27.400;2023-06-26T11:10:48;28.77;;;11.60;;
38302;SDS011;24103;42.454;27.400;2023-06-26T11:13:17;39.70;;;15.55;;
38302;SDS011;24103;42.454;27.400;2023-06-26T11:15:44;26.58;;;11.63;;
38302;SDS011;24103;42.454;27.400;2023-06-26T11:18:10;17.48;;;9.60;;
38302;SDS011;24103;42.454;27.400;2023-06-26T11:20:37;10.07;;;8.25;;
38302;SDS011;24103;42.454;27.400;2023-06-26T11:23:03;10.00;;;7.55;;
38302;SDS011;24103;42.454;27.400;2023-06-26T11:25:33;10.52;;;7.72;;
38302;SDS011;24103;42.454;27.400;2023-06-26T11:28:03;10.23;;;8.10;;
38302;SDS011;24103;42.454;27.400;2023-06-26T11:30:30;10.75;;;7.70;;
38302;SDS011;24103;42.454;27.400;2023-06-26T11:33:08;14.93;;;8.82;;
38302;SDS011;24103;42.454;27.400;2023-06-26T11:35:34;8.43;;;7.00;;
38302;SDS011;24103;42.454;27.400;2023-06-26T11:38:01;8.70;;;7.85;;
38302;SDS011;24103;42.454;27.400;2023-06-26T11:40:34;8.65;;;7.68;;
38302;SDS011;24103;42.454;27.400;2023-06-26T11:43:01;8.07;;;7.28;;
38302;SDS011;24103;42.454;27.400;2023-06-26T11:45:28;8.70;;;7.85;;
38302;SDS011;24103;42.454;27.400;2023-06-26T11:47:55;7.80;;;7.10;;
38302;SDS011;24103;42.454;27.400;2023-06-26T11:50:25;8.23;;;7.32;;
38302;SDS011;24103;42.454;27.400;2023-06-26T11:52:54;11.05;;;7.00;;
38302;SDS011;24103;42.454;27.400;2023-06-26T11:55:24;8.45;;;7.65;;
38302;SDS011;24103;42.454;27.400;2023-06-26T11:57:52;12.55;;;8.95;;
38302;SDS011;24103;42.454;27.400;2023-06-26T12:00:19;13.27;;;9.82;;
38302;SDS011;24103;42.454;27.400;2023-06-26T12:02:45;12.68;;;8.55;;
38302;SDS011;24103;42.454;27.400;2023-06-26T12:05:12;14.27;;;9.73;;
38302;SDS011;24103;42.454;27.400;2023-06-26T12:07:39;9.88;;;8.88;;
38302;SDS011;24103;42.454;27.400;2023-06-26T12:10:10;12.30;;;8.70;;
38302;SDS011;24103;42.454;27.400;2023-06-26T12:12:36;10.15;;;8.75;;
38302;SDS011;24103;42.454;27.400;2023-06-26T12:15:03;10.85;;;8.23;;
38302;SDS011;24103;42.454;27.400;2023-06-26T12:17:30;11.93;;;8.82;;
38302;SDS011;24103;42.454;27.400;2023-06-26T12:19:56;9.35;;;8.02;;
38302;SDS011;24103;42.454;27.400;2023-06-26T12:22:21;9.23;;;7.88;;
38302;SDS011;24103;42.454;27.400;2023-06-26T12:24:47;11.73;;;8.10;;
38302;SDS011;24103;42.454;27.400;2023-06-26T12:27:13;8.82;;;7.55;;
38302;SDS011;24103;42.454;27.400;2023-06-26T12:29:41;8.13;;;7.43;;
38302;SDS011;24103;42.454;27.400;2023-06-26T12:32:12;7.50;;;6.80;;
38302;SDS011;24103;42.454;27.400;2023-06-26T12:34:39;7.35;;;6.68;;
38302;SDS011;24103;42.454;27.400;2023-06-26T12:37:05;7.47;;;6.47;;
38302;SDS011;24103;42.454;27.400;2023-06-26T12:39:51;7.95;;;6.90;;
38302;SDS011;24103;42.454;27.400;2023-06-26T12:42:22;8.30;;;6.70;;
38302;SDS011;24103;42.454;27.400;2023-06-26T12:44:51;7.32;;;6.63;;
38302;SDS011;24103;42.454;27.400;2023-06-26T12:47:19;9.35;;;7.35;;
38302;SDS011;24103;42.454;27.400;2023-06-26T12:49:52;7.15;;;6.55;;
38302;SDS011;24103;42.454;27.400;2023-06-26T12:52:18;6.53;;;5.75;;
38302;SDS011;24103;42.454;27.400;2023-06-26T12:54:45;7.05;;;5.38;;
38302;SDS011;24103;42.454;27.400;2023-06-26T12:57:12;5.68;;;5.15;;
38302;SDS011;24103;42.454;27.400;2023-06-26T12:59:39;6.57;;;4.60;;
38302;SDS011;24103;42.454;27.400;2023-06-26T13:05:27;4.85;;;4.30;;
38302;SDS011;24103;42.454;27.400;2023-06-26T13:07:52;5.38;;;4.63;;
38302;SDS011;24103;42.454;27.400;2023-06-26T13:10:18;4.65;;;4.25;;
38302;SDS011;24103;42.454;27.400;2023-06-26T13:12:44;4.15;;;3.70;;
38302;SDS011;24103;42.454;27.400;2023-06-26T13:15:10;3.90;;;3.60;;
38302;SDS011;24103;42.454;27.400;2023-06-26T13:17:35;4.13;;;3.83;;
38302;SDS011;24103;42.454;27.400;2023-06-26T13:20:01;3.80;;;3.50;;
38302;SDS011;24103;42.454;27.400;2023-06-26T13:22:26;4.57;;;4.07;;
38302;SDS011;24103;42.454;27.400;2023-06-26T13:24:52;4.20;;;3.90;;
38302;SDS011;24103;42.454;27.400;2023-06-26T13:27:17;4.75;;;4.32;;
38302;SDS011;24103;42.454;27.400;2023-06-26T13:29:43;6.15;;;4.95;;
38302;SDS011;24103;42.454;27.400;2023-06-26T13:32:08;4.20;;;3.90;;
38302;SDS011;24103;42.454;27.400;2023-06-26T13:34:34;4.78;;;4.18;;
38302;SDS011;24103;42.454;27.400;2023-06-26T13:36:59;4.50;;;4.10;;
38302;SDS011;24103;42.454;27.400;2023-06-26T13:39:25;4.55;;;3.70;;
38302;SDS011;24103;42.454;27.400;2023-06-26T13:41:50;4.22;;;3.92;;
38302;SDS011;24103;42.454;27.400;2023-06-26T13:44:17;3.63;;;3.35;;
38302;SDS011;24103;42.454;27.400;2023-06-26T13:46:42;4.30;;;3.70;;
38302;SDS011;24103;42.454;27.400;2023-06-26T13:49:08;4.25;;;3.85;;
38302;SDS011;24103;42.454;27.400;2023-06-26T13:51:33;3.25;;;3.05;;
38302;SDS011;24103;42.454;27.400;2023-06-26T13:53:59;4.43;;;3.17;;
38302;SDS011;24103;42.454;27.400;2023-06-26T13:56:26;3.75;;;3.45;;
38302;SDS011;24103;42.454;27.400;2023-06-26T13:58:53;4.05;;;3.65;;
38302;SDS011;24103;42.454;27.400;2023-06-26T14:01:19;6.03;;;4.10;;
38302;SDS011;24103;42.454;27.400;2023-06-26T14:03:45;3.42;;;3.13;;
38302;SDS011;24103;42.454;27.400;2023-06-26T14:06:10;2.70;;;2.50;;
38302;SDS011;24103;42.454;27.400;2023-06-26T14:08:35;2.92;;;2.72;;
38302;SDS011;24103;42.454;27.400;2023-06-26T14:11:01;2.80;;;2.42;;
38302;SDS011;24103;42.454;27.400;2023-06-26T14:13:26;3.58;;;3.10;;
38302;SDS011;24103;42.454;27.400;2023-06-26T14:15:52;2.80;;;2.60;;
38302;SDS011;24103;42.454;27.400;2023-06-26T14:18:18;3.55;;;3.25;;
38302;SDS011;24103;42.454;27.400;2023-06-26T14:20:44;7.57;;;3.60;;
38302;SDS011;24103;42.454;27.400;2023-06-26T14:23:09;3.38;;;2.90;;
38302;SDS011;24103;42.454;27.400;2023-06-26T14:25:38;3.20;;;2.90;;
38302;SDS011;24103;42.454;27.400;2023-06-26T14:28:03;2.90;;;2.70;;
38302;SDS011;24103;42.454;27.400;2023-06-26T14:30:29;3.17;;;2.97;;
38302;SDS011;24103;42.454;27.400;2023-06-26T14:32:54;2.78;;;2.58;;
38302;SDS011;24103;42.454;27.400;2023-06-26T14:35:20;4.65;;;3.28;;
38302;SDS011;24103;42.454;27.400;2023-06-26T14:37:45;3.33;;;2.97;;
38302;SDS011;24103;42.454;27.400;2023-06-26T14:40:13;4.20;;;2.85;;
38302;SDS011;24103;42.454;27.400;2023-06-26T14:42:38;3.60;;;2.88;;
38302;SDS011;24103;42.454;27.400;2023-06-26T14:45:04;3.63;;;2.88;;
38302;SDS011;24103;42.454;27.400;2023-06-26T14:47:30;2.95;;;2.67;;
38302;SDS011;24103;42.454;27.400;2023-06-26T14:49:55;3.38;;;3.05;;
38302;SDS011;24103;42.454;27.400;2023-06-26T14:52:21;4.78;;;3.30;;
38302;SDS011;24103;42.454;27.400;2023-06-26T14:54:46;5.45;;;3.70;;
38302;SDS011;24103;42.454;27.400;2023-06-26T14:57:12;3.88;;;3.58;;
38302;SDS011;24103;42.454;27.400;2023-06-26T14:59:37;3.42;;;3.10;;
38302;SDS011;24103;42.454;27.400;2023-06-26T15:02:03;3.80;;;3.10;;
38302;SDS011;24103;42.454;27.400;2023-06-26T15:04:29;3.50;;;3.20;;
38302;SDS011;24103;42.454;27.400;2023-06-26T15:06:56;3.95;;;3.65;;
38302;SDS011;24103;42.454;27.400;2023-06-26T15:09:22;5.68;;;3.83;;
38302;SDS011;24103;42.454;27.400;2023-06-26T15:11:48;4.70;;;4.10;;
38302;SDS011;24103;42.454;27.400;2023-06-26T15:14:14;4.40;;;3.90;;
38302;SDS011;24103;42.454;27.400;2023-06-26T15:16:39;4.03;;;3.63;;
38302;SDS011;24103;42.454;27.400;2023-06-26T15:19:06;3.60;;;3.30;;
38302;SDS011;24103;42.454;27.400;2023-06-26T15:21:33;3.20;;;3.00;;